createdAt,value
2023-05-22T00:01:56.502Z,101362.00
2023-05-22T00:04:23.417Z,101351.06
2023-05-22T00:06:50.229Z,101364.03
2023-05-22T00:09:16.912Z,101367.97
2023-05-22T00:11:43.802Z,101361.13
2023-05-22T00:14:10.724Z,101350.38
2023-05-22T00:16:37.565Z,101350.97
2023-05-22T00:19:04.899Z,101353.25
2023-05-22T00:21:35.076Z,101360.69
2023-05-22T00:24:02.188Z,101360.59
2023-05-22T00:26:29.163Z,101356.53
2023-05-22T00:28:55.948Z,101341.97
2023-05-22T00:31:23.341Z,101336.06
2023-05-22T00:33:50.434Z,101344.59
2023-05-22T00:36:18.573Z,101350.44
2023-05-22T00:38:45.325Z,101341.97
2023-05-22T00:41:12.040Z,101332.19
2023-05-22T00:43:39.631Z,101334.63
2023-05-22T00:46:11.170Z,101329.75
2023-05-22T00:48:38.400Z,101336.25
2023-05-22T00:51:07.727Z,101334.28
2023-05-22T00:53:34.879Z,101316.84
2023-05-22T00:56:01.889Z,101323.34
2023-05-22T00:58:29.544Z,101328.59
2023-05-22T01:00:56.894Z,101325.31
2023-05-22T01:03:26.994Z,101329.56
2023-05-22T01:05:55.080Z,101319.28
2023-05-22T01:08:22.636Z,101324.06
2023-05-22T01:10:56.996Z,101331.31
2023-05-22T01:13:45.744Z,101330.25
2023-05-22T01:16:25.102Z,101329.59
2023-05-22T01:19:12.501Z,101335.22
2023-05-22T01:22:06.841Z,101335.38
2023-05-22T01:24:48.849Z,101345.25
2023-05-22T01:27:35.183Z,101337.09
2023-05-22T01:30:21.138Z,101340.72
2023-05-22T01:32:49.730Z,101343.88
2023-05-22T01:35:18.994Z,101346.69
2023-05-22T01:37:46.838Z,101332.34
2023-05-22T01:40:13.851Z,101342.50
2023-05-22T01:42:41.273Z,101336.91
2023-05-22T01:45:12.247Z,101335.44
2023-05-22T01:47:39.038Z,101330.38
2023-05-22T01:50:07.124Z,101327.75
2023-05-22T01:52:43.869Z,101326.66
2023-05-22T01:55:20.490Z,101320.97
2023-05-22T01:58:03.082Z,101326.13
2023-05-22T02:00:31.369Z,101329.09
2023-05-22T02:03:04.486Z,101322.25
2023-05-22T02:05:35.856Z,101324.13
2023-05-22T02:08:04.385Z,101327.19
2023-05-22T02:10:33.391Z,101320.69
2023-05-22T02:13:01.609Z,101303.06
2023-05-22T02:15:29.855Z,101303.69
2023-05-22T02:18:00.366Z,101311.84
2023-05-22T02:20:27.254Z,101304.69
2023-05-22T02:22:53.928Z,101308.75
2023-05-22T02:25:21.045Z,101323.22
2023-05-22T02:27:49.518Z,101315.97
2023-05-22T02:30:18.457Z,101310.72
2023-05-22T02:32:49.132Z,101313.28
2023-05-22T02:35:16.098Z,101300.91
2023-05-22T02:37:42.816Z,101308.56
2023-05-22T02:40:13.021Z,101312.84
2023-05-22T02:42:39.753Z,101307.41
2023-05-22T02:45:07.245Z,101298.66
2023-05-22T02:47:34.110Z,101299.72
2023-05-22T02:50:00.785Z,101301.38
2023-05-22T02:52:28.283Z,101296.28
2023-05-22T02:54:55.380Z,101293.41
2023-05-22T02:57:22.847Z,101292.28
2023-05-22T02:59:49.523Z,101296.72
2023-05-22T03:02:16.606Z,101294.63
2023-05-22T03:04:43.321Z,101301.31
2023-05-22T03:07:10.099Z,101303.50
2023-05-22T03:09:37.117Z,101293.56
2023-05-22T03:12:07.596Z,101283.06
2023-05-22T03:14:34.649Z,101283.63
2023-05-22T03:17:01.439Z,101290.66
2023-05-22T03:19:28.265Z,101299.84
2023-05-22T03:21:55.904Z,101300.56
2023-05-22T03:24:22.653Z,101295.22
2023-05-22T03:26:49.456Z,101294.31
2023-05-22T03:29:23.173Z,101298.44
2023-05-22T03:31:50.150Z,101299.44
2023-05-22T03:34:17.099Z,101290.94
2023-05-22T03:36:46.880Z,101292.09
2023-05-22T03:39:16.070Z,101289.34
2023-05-22T03:41:51.664Z,101285.28
2023-05-22T03:44:18.833Z,101284.47
2023-05-22T03:46:46.134Z,101293.50
2023-05-22T03:49:12.836Z,101282.22
2023-05-22T03:51:39.515Z,101284.66
2023-05-22T03:54:06.239Z,101286.91
2023-05-22T03:56:32.802Z,101281.22
2023-05-22T03:58:59.666Z,101280.22
2023-05-22T04:01:27.202Z,101285.28
2023-05-22T04:03:53.847Z,101288.56
2023-05-22T04:06:23.541Z,101287.72
2023-05-22T04:08:50.250Z,101289.19
2023-05-22T04:11:17.006Z,101294.09
2023-05-22T04:13:43.767Z,101286.84
2023-05-22T04:16:10.913Z,101285.69
2023-05-22T04:18:37.811Z,101289.44
2023-05-22T04:21:08.191Z,101277.31
2023-05-22T04:23:35.312Z,101290.34
2023-05-22T04:26:04.538Z,101286.56
2023-05-22T04:28:31.525Z,101291.72
2023-05-22T04:30:58.221Z,101286.56
2023-05-22T04:33:25.148Z,101283.34
2023-05-22T04:35:51.999Z,101288.50
2023-05-22T04:38:18.899Z,101284.78
2023-05-22T04:40:45.550Z,101289.56
2023-05-22T04:43:13.804Z,101283.16
2023-05-22T04:45:42.319Z,101289.88
2023-05-22T04:48:09.392Z,101287.00
2023-05-22T04:50:38.936Z,101282.19
2023-05-22T04:53:06.508Z,101288.31
2023-05-22T04:55:34.127Z,101302.66
2023-05-22T04:58:01.780Z,101296.94
2023-05-22T05:00:29.429Z,101292.25
2023-05-22T05:02:57.510Z,101299.94
2023-05-22T05:05:24.951Z,101302.03
2023-05-22T05:07:53.300Z,101308.38
2023-05-22T05:10:20.165Z,101312.56
2023-05-22T05:12:46.842Z,101314.81
2023-05-22T05:15:13.621Z,101316.06
2023-05-22T05:17:41.151Z,101320.38
2023-05-22T05:20:08.847Z,101319.56
2023-05-22T05:22:36.078Z,101306.00
2023-05-22T05:25:05.708Z,101314.81
2023-05-22T05:27:33.454Z,101329.53
2023-05-22T05:30:01.934Z,101319.19
2023-05-22T05:32:45.765Z,101322.13
2023-05-22T05:35:23.632Z,101309.72
2023-05-22T05:38:02.494Z,101323.00
2023-05-22T05:40:33.608Z,101320.88
2023-05-22T05:43:00.455Z,101325.13
2023-05-22T05:45:28.968Z,101325.78
2023-05-22T05:47:56.421Z,101329.31
2023-05-22T05:50:24.075Z,101328.63
2023-05-22T05:52:50.818Z,101329.59
2023-05-22T05:55:19.335Z,101332.16
2023-05-22T05:57:47.904Z,101331.78
2023-05-22T06:00:22.564Z,101343.28
2023-05-22T06:02:52.254Z,101330.91
2023-05-22T06:05:39.111Z,101340.56
2023-05-22T06:08:21.874Z,101341.28
2023-05-22T06:10:49.566Z,101342.47
2023-05-22T06:13:31.498Z,101347.59
2023-05-22T06:16:01.692Z,101341.59
2023-05-22T06:18:29.673Z,101331.47
2023-05-22T06:20:59.146Z,101346.88
2023-05-22T06:23:26.005Z,101348.72
2023-05-22T06:25:55.586Z,101337.56
2023-05-22T06:28:23.350Z,101345.09
2023-05-22T06:30:50.271Z,101342.25
2023-05-22T06:33:19.776Z,101353.19
2023-05-22T06:35:46.580Z,101352.06
2023-05-22T06:38:13.407Z,101361.69
2023-05-22T06:40:42.331Z,101369.28
2023-05-22T06:43:22.401Z,101363.91
2023-05-22T06:45:53.951Z,101370.34
2023-05-22T06:48:23.653Z,101366.81
2023-05-22T06:51:20.720Z,101376.00
2023-05-22T06:53:51.498Z,101375.44
2023-05-22T06:56:22.914Z,101383.53
2023-05-22T06:59:10.953Z,101386.66
2023-05-22T07:01:56.729Z,101379.97
2023-05-22T07:04:49.734Z,101390.09
2023-05-22T07:07:21.569Z,101391.31
2023-05-22T07:09:48.287Z,101388.88
2023-05-22T07:12:15.639Z,101384.44
2023-05-22T07:14:42.652Z,101397.22
2023-05-22T07:17:09.534Z,101397.81
2023-05-22T07:19:41.365Z,101375.13
2023-05-22T07:22:08.772Z,101388.91
2023-05-22T07:24:37.708Z,101393.19
2023-05-22T07:27:05.974Z,101390.13
2023-05-22T07:29:33.965Z,101397.66
2023-05-22T07:32:01.946Z,101396.81
2023-05-22T07:34:34.355Z,101393.56
2023-05-22T07:37:08.971Z,101408.72
2023-05-22T07:39:35.999Z,101404.06
2023-05-22T07:42:04.736Z,101391.81
2023-05-22T07:44:34.629Z,101389.88
2023-05-22T07:47:01.542Z,101401.50
2023-05-22T07:49:29.730Z,101389.50
2023-05-22T07:51:56.544Z,101401.88
2023-05-22T07:54:25.519Z,101411.69
2023-05-22T07:56:52.895Z,101414.19
2023-05-22T07:59:21.672Z,101414.84
2023-05-22T08:01:48.382Z,101404.44
2023-05-22T08:04:15.415Z,101400.16
2023-05-22T08:06:43.924Z,101409.06
2023-05-22T08:09:10.820Z,101405.16
2023-05-22T08:11:40.205Z,101407.88
2023-05-22T08:14:07.692Z,101402.59
2023-05-22T08:16:35.095Z,101416.78
2023-05-22T08:19:02.063Z,101404.88
2023-05-22T08:21:28.889Z,101413.97
2023-05-22T08:23:55.728Z,101419.50
2023-05-22T08:26:25.480Z,101421.34
2023-05-22T08:28:52.416Z,101410.94
2023-05-22T08:31:19.249Z,101411.69
2023-05-22T08:33:46.149Z,101420.84
2023-05-22T08:36:13.405Z,101414.97
2023-05-22T08:38:41.187Z,101412.34
2023-05-22T08:41:08.938Z,101411.94
2023-05-22T08:43:35.907Z,101416.19
2023-05-22T08:46:09.067Z,101411.50
2023-05-22T08:48:35.971Z,101405.13
2023-05-22T08:51:05.212Z,101421.31
2023-05-22T08:53:36.335Z,101415.88
2023-05-22T08:56:05.583Z,101411.00
2023-05-22T08:58:36.825Z,101410.59
2023-05-22T09:01:05.336Z,101400.22
2023-05-22T09:03:35.237Z,101400.47
2023-05-22T09:06:02.302Z,101399.78
2023-05-22T09:08:29.076Z,101399.19
2023-05-22T09:10:56.340Z,101396.44
2023-05-22T09:13:32.097Z,101398.03
2023-05-22T09:16:00.895Z,101399.81
2023-05-22T09:18:29.149Z,101393.22
2023-05-22T09:20:59.861Z,101394.03
2023-05-22T09:23:28.154Z,101392.59
2023-05-22T09:25:56.807Z,101393.69
2023-05-22T09:28:24.485Z,101390.69
2023-05-22T09:30:52.713Z,101385.06
2023-05-22T09:33:20.304Z,101388.66
2023-05-22T09:35:47.291Z,101392.41
2023-05-22T09:38:14.249Z,101392.84
2023-05-22T09:40:42.220Z,101390.47
2023-05-22T09:43:10.575Z,101388.81
2023-05-22T09:45:38.390Z,101378.34
2023-05-22T09:48:06.316Z,101384.50
2023-05-22T09:50:33.056Z,101386.63
2023-05-22T09:53:05.039Z,101377.28
2023-05-22T09:55:32.234Z,101381.44
2023-05-22T09:58:03.151Z,101378.22
2023-05-22T10:00:34.184Z,101376.03
2023-05-22T10:03:12.733Z,101368.06
2023-05-22T10:05:47.447Z,101375.13
2023-05-22T10:08:17.643Z,101375.69
2023-05-22T10:10:50.009Z,101377.94
2023-05-22T10:13:17.231Z,101377.00
2023-05-22T10:15:44.210Z,101377.13
2023-05-22T10:18:11.834Z,101374.94
2023-05-22T10:20:39.742Z,101374.41
2023-05-22T10:23:08.051Z,101368.16
2023-05-22T10:25:37.746Z,101373.47
2023-05-22T10:28:06.401Z,101375.25
2023-05-22T10:30:56.739Z,101369.19
2023-05-22T10:33:32.099Z,101358.31
2023-05-22T10:36:08.928Z,101370.78
2023-05-22T10:38:46.899Z,101365.22
2023-05-22T10:41:13.954Z,101370.88
2023-05-22T10:43:44.372Z,101361.84
2023-05-22T10:46:12.827Z,101361.44
2023-05-22T10:48:41.439Z,101358.38
2023-05-22T10:51:08.922Z,101360.06
2023-05-22T10:53:36.245Z,101351.88
2023-05-22T10:56:18.572Z,101355.19
2023-05-22T10:58:56.755Z,101360.16
2023-05-22T11:01:26.315Z,101358.28
2023-05-22T11:04:02.008Z,101345.34
2023-05-22T11:06:42.009Z,101346.34
2023-05-22T11:09:32.174Z,101346.25
2023-05-22T11:12:21.416Z,101352.56
2023-05-22T11:14:50.121Z,101344.03
2023-05-22T11:17:19.673Z,101343.13
2023-05-22T11:20:05.573Z,101344.09
2023-05-22T11:22:37.551Z,101343.53
2023-05-22T11:25:08.024Z,101340.81
2023-05-22T11:27:36.463Z,101344.09
2023-05-22T11:30:04.335Z,101341.47
2023-05-22T11:32:31.307Z,101343.56
2023-05-22T11:34:58.025Z,101333.81
2023-05-22T11:37:24.762Z,101326.56
2023-05-22T11:39:56.563Z,101333.81
2023-05-22T11:42:23.322Z,101331.81
2023-05-22T11:44:50.234Z,101337.03
2023-05-22T11:47:17.221Z,101346.72
2023-05-22T11:49:44.405Z,101334.78
2023-05-22T11:52:11.320Z,101335.94
2023-05-22T11:54:38.961Z,101335.69
2023-05-22T11:57:09.636Z,101330.50
2023-05-22T11:59:36.283Z,101338.31
2023-05-22T12:02:03.036Z,101337.13
2023-05-22T12:04:30.284Z,101337.66
2023-05-22T12:06:57.353Z,101340.03
2023-05-22T12:09:24.483Z,101327.22
2023-05-22T12:11:51.157Z,101326.63
2023-05-22T12:14:17.824Z,101329.69
2023-05-22T12:16:44.759Z,101326.63
2023-05-22T12:19:12.262Z,101343.63
2023-05-22T12:21:39.525Z,101342.31
2023-05-22T12:24:06.479Z,101349.31
2023-05-22T12:26:33.260Z,101344.38
2023-05-22T12:29:00.137Z,101352.47
2023-05-22T12:31:38.892Z,101333.34
2023-05-22T12:34:09.010Z,101347.09
2023-05-22T12:36:39.352Z,101339.13
2023-05-22T12:39:17.719Z,101338.44
2023-05-22T12:41:47.257Z,101343.47
2023-05-22T12:44:16.588Z,101341.84
2023-05-22T12:46:43.514Z,101342.94
2023-05-22T12:49:11.050Z,101338.44
2023-05-22T12:51:37.807Z,101341.53
2023-05-22T12:54:05.111Z,101334.31
2023-05-22T12:56:32.347Z,101340.00
2023-05-22T12:58:59.143Z,101334.53
2023-05-22T13:01:26.493Z,101331.28
2023-05-22T13:03:53.501Z,101328.28
2023-05-22T13:06:20.749Z,101329.38
2023-05-22T13:08:47.319Z,101324.41
2023-05-22T13:11:14.130Z,101320.56
2023-05-22T13:13:40.767Z,101322.31
2023-05-22T13:16:10.199Z,101318.84
2023-05-22T13:18:36.843Z,101326.69
2023-05-22T13:21:03.881Z,101329.06
2023-05-22T13:23:30.839Z,101320.78
2023-05-22T13:25:57.799Z,101328.13
2023-05-22T13:28:24.583Z,101327.69
2023-05-22T13:30:51.271Z,101326.59
2023-05-22T13:36:01.144Z,101320.72
2023-05-22T13:38:28.161Z,101326.50
2023-05-22T13:40:54.877Z,101314.72
2023-05-22T13:43:21.646Z,101329.13
2023-05-22T13:45:48.428Z,101331.06
2023-05-22T13:48:16.049Z,101331.63
2023-05-22T13:50:42.956Z,101336.81
2023-05-22T13:53:28.144Z,101340.00
2023-05-22T13:55:55.222Z,101332.38
2023-05-22T13:58:21.890Z,101338.81
2023-05-22T14:00:50.032Z,101344.78
2023-05-22T14:03:19.844Z,101347.69
2023-05-22T14:05:46.625Z,101346.41
2023-05-22T14:08:13.505Z,101348.53
2023-05-22T14:10:40.478Z,101350.31
2023-05-22T14:13:08.832Z,101338.78
2023-05-22T14:15:38.354Z,101330.06
2023-05-22T14:18:05.199Z,101347.25
2023-05-22T14:20:32.039Z,101351.72
2023-05-22T14:22:58.811Z,101340.41
2023-05-22T14:25:26.301Z,101348.81
2023-05-22T14:27:53.294Z,101363.94
2023-05-22T14:30:20.097Z,101351.84
2023-05-22T14:32:46.910Z,101358.06
2023-05-22T14:35:14.360Z,101344.53
2023-05-22T14:37:41.077Z,101358.81
2023-05-22T14:40:08.546Z,101355.75
2023-05-22T14:42:36.268Z,101348.59
2023-05-22T14:45:04.089Z,101363.94
2023-05-22T14:47:31.013Z,101361.06
2023-05-22T14:50:10.247Z,101364.59
2023-05-22T14:52:45.415Z,101358.63
2023-05-22T14:55:12.105Z,101370.78
2023-05-22T14:57:38.823Z,101364.38
2023-05-22T15:00:06.854Z,101366.00
2023-05-22T15:02:33.800Z,101373.19
2023-05-22T15:05:00.685Z,101368.03
2023-05-22T15:07:35.987Z,101367.78
2023-05-22T15:10:10.734Z,101370.28
2023-05-22T15:12:37.536Z,101364.78
2023-05-22T15:15:04.596Z,101371.34
2023-05-22T15:17:31.293Z,101379.44
2023-05-22T15:19:57.991Z,101369.59
2023-05-22T15:22:24.776Z,101368.16
2023-05-22T15:25:06.343Z,101377.28
2023-05-22T15:27:35.040Z,101367.13
2023-05-22T15:30:02.627Z,101366.59
2023-05-22T15:32:30.621Z,101369.91
2023-05-22T15:34:57.384Z,101364.22
2023-05-22T15:37:24.123Z,101355.28
2023-05-22T15:39:51.019Z,101358.88
2023-05-22T15:42:17.676Z,101362.00
2023-05-22T15:44:44.292Z,101370.16
2023-05-22T15:47:11.196Z,101361.06
2023-05-22T15:49:38.159Z,101358.41
2023-05-22T15:52:05.124Z,101375.97
2023-05-22T15:54:31.784Z,101361.59
2023-05-22T15:56:58.594Z,101368.22
2023-05-22T15:59:25.375Z,101358.88
2023-05-22T16:01:52.725Z,101351.72
2023-05-22T16:04:19.583Z,101350.59
2023-05-22T16:06:46.329Z,101353.97
2023-05-22T16:09:13.100Z,101355.53
2023-05-22T16:11:39.732Z,101364.03
2023-05-22T16:14:06.455Z,101366.84
2023-05-22T16:16:35.319Z,101368.19
2023-05-22T16:19:02.014Z,101364.38
2023-05-22T16:21:29.136Z,101360.44
2023-05-22T16:23:58.162Z,101374.41
2023-05-22T16:26:24.884Z,101372.69
2023-05-22T16:28:51.533Z,101364.69
2023-05-22T16:31:19.863Z,101382.78
2023-05-22T16:33:46.849Z,101390.63
2023-05-22T16:36:13.841Z,101385.72
2023-05-22T16:38:40.685Z,101386.66
2023-05-22T16:41:07.364Z,101380.84
2023-05-22T16:43:36.595Z,101374.78
2023-05-22T16:46:03.419Z,101381.41
2023-05-22T16:48:30.257Z,101357.94
2023-05-22T16:50:56.986Z,101360.13
2023-05-22T16:53:23.780Z,101374.28
2023-05-22T16:55:50.474Z,101376.63
2023-05-22T16:58:17.180Z,101376.09
2023-05-22T17:00:43.894Z,101365.53
2023-05-22T17:03:11.951Z,101382.47
2023-05-22T17:05:42.319Z,101383.56
2023-05-22T17:08:09.572Z,101386.41
2023-05-22T17:10:36.273Z,101384.91
2023-05-22T17:13:02.915Z,101385.44
2023-05-22T17:15:29.661Z,101387.72
2023-05-22T17:17:56.582Z,101396.25
2023-05-22T17:20:24.784Z,101391.41
2023-05-22T17:22:52.412Z,101396.97
2023-05-22T17:25:19.203Z,101389.31
2023-05-22T17:27:46.490Z,101398.41
2023-05-22T17:30:13.351Z,101397.41
2023-05-22T17:32:40.226Z,101402.94
2023-05-22T17:35:07.731Z,101408.88
2023-05-22T17:37:36.245Z,101397.25
2023-05-22T17:40:03.972Z,101391.34
2023-05-22T17:42:30.626Z,101412.53
2023-05-22T17:44:57.371Z,101404.91
2023-05-22T17:47:23.999Z,101400.19
2023-05-22T17:49:50.930Z,101400.38
2023-05-22T17:52:17.571Z,101418.66
2023-05-22T17:54:44.318Z,101418.13
2023-05-22T17:57:11.765Z,101417.41
2023-05-22T17:59:40.295Z,101412.94
2023-05-22T18:02:08.885Z,101433.03
2023-05-22T18:04:36.310Z,101439.19
2023-05-22T18:07:02.933Z,101421.59
2023-05-22T18:09:29.602Z,101437.53
2023-05-22T18:11:56.286Z,101438.66
2023-05-22T18:14:22.988Z,101436.09
2023-05-22T18:16:49.760Z,101422.59
2023-05-22T18:19:16.439Z,101438.16
2023-05-22T18:21:43.243Z,101443.94
2023-05-22T18:24:09.983Z,101444.53
2023-05-22T18:26:37.739Z,101443.06
2023-05-22T18:29:04.461Z,101465.81
2023-05-22T18:31:31.303Z,101460.81
2023-05-22T18:33:58.064Z,101455.34
2023-05-22T18:36:24.839Z,101449.88
2023-05-22T18:38:51.546Z,101440.59
2023-05-22T18:41:18.191Z,101461.59
2023-05-22T18:43:44.892Z,101454.81
2023-05-22T18:46:11.607Z,101452.78
2023-05-22T18:48:38.302Z,101455.84
2023-05-22T18:51:56.269Z,101450.78
2023-05-22T18:54:36.888Z,101441.94
2023-05-22T18:57:19.529Z,101434.03
2023-05-22T18:59:49.689Z,101461.03
2023-05-22T19:02:16.989Z,101463.00
2023-05-22T19:04:44.044Z,101461.13
2023-05-22T19:07:10.885Z,101469.16
2023-05-22T19:09:37.700Z,101478.25
2023-05-22T19:12:07.638Z,101477.66
2023-05-22T19:14:34.242Z,101488.97
2023-05-22T19:17:00.902Z,101487.00
2023-05-22T19:19:27.682Z,101487.06
2023-05-22T19:21:54.478Z,101498.72
2023-05-22T19:24:22.512Z,101495.31
2023-05-22T19:26:49.152Z,101503.88
2023-05-22T19:29:15.872Z,101506.63
2023-05-22T19:31:42.645Z,101512.69
2023-05-22T19:34:09.334Z,101522.50
2023-05-22T19:36:56.428Z,101519.28
2023-05-22T19:39:31.351Z,101491.53
2023-05-22T19:41:58.026Z,101511.91
2023-05-22T19:44:24.717Z,101507.53
2023-05-22T19:46:51.636Z,101534.88
2023-05-22T19:49:18.883Z,101528.88
2023-05-22T19:51:46.238Z,101539.69
2023-05-22T19:54:12.903Z,101542.09
2023-05-22T19:56:39.809Z,101551.63
2023-05-22T19:59:06.629Z,101554.50
2023-05-22T20:01:33.493Z,101558.94
2023-05-22T20:04:01.080Z,101557.94
2023-05-22T20:06:31.564Z,101554.50
2023-05-22T20:08:58.380Z,101565.41
2023-05-22T20:11:25.079Z,101566.22
2023-05-22T20:13:54.397Z,101571.09
2023-05-22T20:16:21.302Z,101568.66
2023-05-22T20:18:48.852Z,101588.09
2023-05-22T20:21:15.541Z,101585.16
2023-05-22T20:23:42.164Z,101592.94
2023-05-22T20:26:08.733Z,101593.28
2023-05-22T20:28:35.374Z,101587.34
2023-05-22T20:31:02.207Z,101590.75
2023-05-22T20:33:29.085Z,101607.38
2023-05-22T20:35:55.848Z,101604.97
2023-05-22T20:38:22.666Z,101613.19
2023-05-22T20:40:49.583Z,101619.09
2023-05-22T20:43:18.580Z,101613.13
2023-05-22T20:45:45.770Z,101617.34
2023-05-22T20:48:13.650Z,101625.16
2023-05-22T20:50:42.149Z,101629.78
2023-05-22T20:53:08.835Z,101629.28
2023-05-22T20:55:35.741Z,101637.13
2023-05-22T20:58:02.323Z,101637.28
2023-05-22T21:00:30.109Z,101643.34
2023-05-22T21:02:58.347Z,101639.66
2023-05-22T21:05:26.340Z,101650.50
2023-05-22T21:07:53.471Z,101655.69
2023-05-22T21:10:22.678Z,101644.78
2023-05-22T21:12:49.274Z,101634.47
2023-05-22T21:15:16.292Z,101646.13
2023-05-22T21:17:45.785Z,101652.97
2023-05-22T21:20:12.766Z,101642.44
2023-05-22T21:22:39.830Z,101649.25
2023-05-22T21:25:07.129Z,101660.50
2023-05-22T21:27:33.696Z,101653.13
2023-05-22T21:30:00.523Z,101659.50
2023-05-22T21:32:27.138Z,101663.44
2023-05-22T21:34:53.978Z,101673.88
2023-05-22T21:37:20.588Z,101689.63
2023-05-22T21:39:47.222Z,101692.91
2023-05-22T21:42:16.217Z,101685.41
2023-05-22T21:44:43.037Z,101690.91
2023-05-22T21:47:10.181Z,101720.00
2023-05-22T21:49:39.434Z,101708.56
2023-05-22T21:52:06.382Z,101708.72
2023-05-22T21:54:33.121Z,101714.53
2023-05-22T21:56:59.802Z,101715.22
2023-05-22T21:59:26.615Z,101714.53
2023-05-22T22:01:53.318Z,101734.53
2023-05-22T22:04:20.307Z,101736.84
2023-05-22T22:06:46.983Z,101723.41
2023-05-22T22:09:13.665Z,101732.25
2023-05-22T22:11:40.258Z,101726.34
2023-05-22T22:14:07.677Z,101715.66
2023-05-22T22:16:36.049Z,101728.56
2023-05-22T22:19:03.363Z,101726.47
2023-05-22T22:21:30.559Z,101721.41
2023-05-22T22:23:57.635Z,101715.91
2023-05-22T22:26:24.287Z,101718.91
2023-05-22T22:28:51.448Z,101709.44
2023-05-22T22:31:18.309Z,101706.34
2023-05-22T22:33:45.128Z,101713.06
2023-05-22T22:36:11.723Z,101720.00
2023-05-22T22:38:38.597Z,101716.91
2023-05-22T22:41:08.517Z,101716.59
2023-05-22T22:43:36.118Z,101713.13
2023-05-22T22:46:02.778Z,101713.13
2023-05-22T22:48:29.611Z,101722.50
2023-05-22T22:50:56.300Z,101717.75
2023-05-22T22:53:22.943Z,101726.28
2023-05-22T22:55:54.772Z,101723.00
2023-05-22T22:58:21.692Z,101732.03
2023-05-22T23:00:48.616Z,101745.63
2023-05-22T23:03:15.579Z,101736.47
2023-05-22T23:05:42.975Z,101737.59
2023-05-22T23:08:09.824Z,101739.03
2023-05-22T23:10:36.428Z,101731.53
2023-05-22T23:13:03.146Z,101739.41
2023-05-22T23:15:30.093Z,101728.91
2023-05-22T23:17:56.925Z,101732.63
2023-05-22T23:20:23.716Z,101723.66
2023-05-22T23:22:51.143Z,101731.41
2023-05-22T23:25:17.963Z,101739.41
2023-05-22T23:27:44.603Z,101724.03
2023-05-22T23:30:11.847Z,101732.75
2023-05-22T23:32:38.524Z,101734.28
2023-05-22T23:35:05.774Z,101738.53
2023-05-22T23:37:32.402Z,101738.47
2023-05-22T23:39:59.276Z,101745.50
2023-05-22T23:42:26.020Z,101745.47
2023-05-22T23:44:52.652Z,101751.38
2023-05-22T23:47:19.311Z,101750.41
2023-05-22T23:49:46.037Z,101760.00
2023-05-22T23:52:13.181Z,101749.66
2023-05-22T23:54:39.806Z,101759.38
2023-05-22T23:57:06.490Z,101749.97
2023-05-22T23:59:33.263Z,101747.34
